createdAt,value
2018-09-10T00:00:35.584Z,99708.83
2018-09-10T00:03:05.992Z,99699.39
2018-09-10T00:05:36.424Z,99701.96
2018-09-10T00:08:07.461Z,99702.27
2018-09-10T00:10:38.325Z,99707.32
2018-09-10T00:13:10.014Z,99706.17
2018-09-10T00:15:40.900Z,99707.49
2018-09-10T00:18:11.408Z,99704.09
2018-09-10T00:20:41.731Z,99708.69
2018-09-10T00:23:12.240Z,99712.80
2018-09-10T00:25:42.592Z,99720.16
2018-09-10T00:28:13.205Z,99709.23
2018-09-10T00:30:43.783Z,99718.69
2018-09-10T00:33:14.570Z,99726.78
2018-09-10T00:35:44.825Z,99729.02
2018-09-10T00:38:15.717Z,99734.33
2018-09-10T00:40:46.316Z,99728.75
2018-09-10T00:43:16.589Z,99731.18
2018-09-10T00:45:47.528Z,99733.78
2018-09-10T00:48:18.364Z,99727.29
2018-09-10T00:50:49.192Z,99731.28
2018-09-10T00:53:19.823Z,99724.89
2018-09-10T00:55:51.295Z,99720.14
2018-09-10T00:58:21.821Z,99723.85
2018-09-10T01:00:52.324Z,99721.56
2018-09-10T01:03:22.767Z,99715.11
2018-09-10T01:05:53.583Z,99720.83
2018-09-10T01:08:24.738Z,99715.11
2018-09-10T01:10:55.279Z,99721.55
2018-09-10T01:13:25.810Z,99723.64
2018-09-10T01:15:56.670Z,99716.42
2018-09-10T01:18:27.181Z,99717.27
2018-09-10T01:20:57.688Z,99711.30
2018-09-10T01:23:28.604Z,99711.10
2018-09-10T01:25:59.671Z,99710.81
2018-09-10T01:28:30.187Z,99708.38
2018-09-10T01:31:00.702Z,99707.55
2018-09-10T01:33:36.370Z,99704.52
2018-09-10T01:36:06.591Z,99690.13
2018-09-10T01:38:38.507Z,99704.95
2018-09-10T01:41:10.244Z,99710.08
2018-09-10T01:43:40.761Z,99712.27
2018-09-10T01:46:10.992Z,99713.92
2018-09-10T01:48:41.669Z,99708.89
2018-09-10T01:51:12.639Z,99712.80
2018-09-10T01:53:43.308Z,99708.95
2018-09-10T01:56:13.893Z,99709.78
2018-09-10T01:58:44.604Z,99700.52
2018-09-10T02:01:15.104Z,99693.66
2018-09-10T02:03:46.197Z,99696.27
2018-09-10T02:06:16.766Z,99696.95
2018-09-10T02:08:47.533Z,99688.31
2018-09-10T02:11:17.726Z,99686.95
2018-09-10T02:13:48.392Z,99695.34
2018-09-10T02:16:19.545Z,99695.53
2018-09-10T02:18:50.136Z,99693.31
2018-09-10T02:21:21.222Z,99696.77
2018-09-10T02:23:52.016Z,99698.38
2018-09-10T02:26:22.986Z,99701.79
2018-09-10T02:28:53.810Z,99696.35
2018-09-10T02:31:24.330Z,99696.30
2018-09-10T02:33:55.088Z,99702.36
2018-09-10T02:36:25.608Z,99698.66
2018-09-10T02:38:56.132Z,99698.25
2018-09-10T02:41:26.429Z,99693.41
2018-09-10T02:43:56.938Z,99699.61
2018-09-10T02:46:27.288Z,99698.73
2018-09-10T02:48:57.921Z,99701.70
2018-09-10T02:51:28.583Z,99689.63
2018-09-10T02:53:59.640Z,99692.08
2018-09-10T02:56:30.296Z,99694.31
2018-09-10T02:59:01.196Z,99694.67
2018-09-10T03:01:31.718Z,99696.88
2018-09-10T03:04:02.302Z,99701.61
2018-09-10T03:06:32.598Z,99692.41
2018-09-10T03:09:03.210Z,99687.80
2018-09-10T03:11:33.696Z,99687.08
2018-09-10T03:14:04.165Z,99684.37
2018-09-10T03:16:34.695Z,99685.09
2018-09-10T03:19:05.511Z,99658.95
2018-09-10T03:21:36.091Z,99680.56
2018-09-10T03:24:06.971Z,99681.17
2018-09-10T03:26:37.724Z,99689.48
2018-09-10T03:29:08.749Z,99682.02
2018-09-10T03:31:39.392Z,99679.91
2018-09-10T03:34:09.915Z,99680.57
2018-09-10T03:36:40.448Z,99670.58
2018-09-10T03:39:11.536Z,99657.75
2018-09-10T03:41:41.796Z,99675.41
2018-09-10T03:44:12.297Z,99686.83
2018-09-10T03:46:42.525Z,99683.55
2018-09-10T03:49:13.111Z,99683.16
2018-09-10T03:51:43.635Z,99692.48
2018-09-10T03:54:13.883Z,99690.42
2018-09-10T03:56:44.687Z,99696.16
2018-09-10T03:59:14.947Z,99700.84
2018-09-10T04:01:45.715Z,99693.69
2018-09-10T04:04:16.252Z,99701.74
2018-09-10T04:06:46.572Z,99700.41
2018-09-10T04:09:17.046Z,99707.62
2018-09-10T04:11:47.731Z,99702.78
2018-09-10T04:14:18.301Z,99707.32
2018-09-10T04:16:49.247Z,99716.19
2018-09-10T04:19:19.831Z,99708.33
2018-09-10T04:21:50.544Z,99705.52
2018-09-10T04:24:21.184Z,99716.63
2018-09-10T04:26:51.981Z,99718.34
2018-09-10T04:29:22.353Z,99717.20
2018-09-10T04:31:52.843Z,99721.36
2018-09-10T04:34:23.309Z,99721.64
2018-09-10T04:36:53.809Z,99722.16
2018-09-10T04:39:25.853Z,99724.52
2018-09-10T04:41:56.439Z,99716.23
2018-09-10T04:44:26.909Z,99724.20
2018-09-10T04:46:58.075Z,99716.61
2018-09-10T04:49:28.747Z,99720.38
2018-09-10T04:51:59.240Z,99727.84
2018-09-10T04:54:29.744Z,99730.59
2018-09-10T04:57:00.245Z,99722.72
2018-09-10T04:59:30.653Z,99732.52
2018-09-10T05:02:01.372Z,99726.63
2018-09-10T05:04:32.480Z,99731.63
2018-09-10T05:07:03.182Z,99729.28
2018-09-10T05:09:33.844Z,99730.59
2018-09-10T05:12:04.383Z,99736.63
2018-09-10T05:14:34.860Z,99726.86
2018-09-10T05:17:05.433Z,99728.13
2018-09-10T05:19:35.784Z,99724.70
2018-09-10T05:22:06.860Z,99730.92
2018-09-10T05:24:37.671Z,99727.63
2018-09-10T05:27:07.912Z,99732.63
2018-09-10T05:29:38.945Z,99731.06
2018-09-10T05:32:09.843Z,99726.59
2018-09-10T05:34:40.043Z,99727.16
2018-09-10T05:37:10.583Z,99736.97
2018-09-10T05:39:41.120Z,99743.28
2018-09-10T05:42:14.491Z,99740.30
2018-09-10T05:44:45.300Z,99737.72
2018-09-10T05:47:16.126Z,99745.10
2018-09-10T05:49:46.680Z,99748.68
2018-09-10T05:52:17.203Z,99750.88
2018-09-10T05:54:47.704Z,99748.89
2018-09-10T05:57:18.179Z,99753.01
2018-09-10T05:59:48.873Z,99746.30
2018-09-10T06:02:19.284Z,99747.27
2018-09-10T06:04:49.912Z,99743.84
2018-09-10T06:07:20.682Z,99747.33
2018-09-10T06:09:51.208Z,99748.06
2018-09-10T06:12:23.298Z,99754.98
2018-09-10T06:14:54.179Z,99756.64
2018-09-10T06:17:24.688Z,99757.53
2018-09-10T06:19:55.464Z,99763.78
2018-09-10T06:22:26.136Z,99767.23
2018-09-10T06:24:56.684Z,99763.42
2018-09-10T06:27:26.964Z,99759.83
2018-09-10T06:29:57.461Z,99769.80
2018-09-10T06:32:28.162Z,99771.03
2018-09-10T06:34:58.796Z,99770.97
2018-09-10T06:37:29.828Z,99778.30
2018-09-10T06:40:00.375Z,99778.66
2018-09-10T06:42:31.205Z,99778.90
2018-09-10T06:45:01.749Z,99784.14
2018-09-10T06:47:32.895Z,99786.14
2018-09-10T06:50:05.743Z,99792.55
2018-09-10T06:52:36.436Z,99795.25
2018-09-10T06:55:09.032Z,99799.11
2018-09-10T06:57:39.787Z,99796.51
2018-09-10T07:00:10.991Z,99794.78
2018-09-10T07:02:41.779Z,99798.27
2018-09-10T07:05:13.251Z,99802.51
2018-09-10T07:07:43.862Z,99806.30
2018-09-10T07:10:14.619Z,99806.05
2018-09-10T07:12:46.021Z,99809.09
2018-09-10T07:15:16.676Z,99810.34
2018-09-10T07:17:47.173Z,99811.20
2018-09-10T07:20:17.715Z,99808.53
2018-09-10T07:22:48.324Z,99710.13
2018-09-10T07:25:18.584Z,99812.94
2018-09-10T07:27:52.108Z,99814.41
2018-09-10T07:30:22.690Z,99807.47
2018-09-10T07:32:53.258Z,99814.64
2018-09-10T07:35:23.482Z,99818.34
2018-09-10T07:37:54.227Z,99810.44
2018-09-10T07:40:24.781Z,99822.11
2018-09-10T07:42:55.316Z,99816.75
2018-09-10T07:45:25.893Z,99815.42
2018-09-10T07:47:56.404Z,99811.89
2018-09-10T07:50:26.895Z,99816.63
2018-09-10T07:52:57.420Z,99815.41
2018-09-10T07:55:27.911Z,99821.67
2018-09-10T07:57:58.410Z,99818.16
2018-09-10T08:00:29.739Z,99823.08
2018-09-10T08:03:00.573Z,99821.47
2018-09-10T08:05:31.024Z,99823.42
2018-09-10T08:08:01.499Z,99821.20
2018-09-10T08:10:32.307Z,99819.14
2018-09-10T08:13:03.120Z,99730.26
2018-09-10T08:15:33.628Z,99824.87
2018-09-10T08:18:04.255Z,99817.89
2018-09-10T08:20:34.865Z,99819.35
2018-09-10T08:23:05.263Z,99815.28
2018-09-10T08:25:36.147Z,99813.14
2018-09-10T08:28:06.680Z,99812.35
2018-09-10T08:30:37.708Z,99817.39
2018-09-10T08:33:09.410Z,99818.37
2018-09-10T08:35:39.735Z,99808.34
2018-09-10T08:38:10.454Z,99818.95
2018-09-10T08:40:41.094Z,99811.73
2018-09-10T08:43:11.656Z,99734.73
2018-09-10T08:45:42.384Z,99813.23
2018-09-10T08:48:13.150Z,99808.75
2018-09-10T08:50:43.591Z,99811.32
2018-09-10T08:53:14.190Z,99819.31
2018-09-10T08:55:45.086Z,99814.02
2018-09-10T08:58:15.758Z,99820.91
2018-09-10T09:00:46.663Z,99822.70
2018-09-10T09:03:17.219Z,99820.75
2018-09-10T09:05:47.800Z,99821.58
2018-09-10T09:08:18.332Z,99821.70
2018-09-10T09:10:49.711Z,99816.19
2018-09-10T09:13:20.204Z,99820.77
2018-09-10T09:15:51.063Z,99817.48
2018-09-10T09:18:21.315Z,99820.00
2018-09-10T09:20:51.998Z,99818.31
2018-09-10T09:23:22.453Z,99818.55
2018-09-10T09:25:53.128Z,99819.27
2018-09-10T09:28:23.360Z,99817.92
2018-09-10T09:30:54.186Z,99824.09
2018-09-10T09:33:25.015Z,99824.33
2018-09-10T09:36:00.826Z,99825.87
2018-09-10T09:38:36.940Z,99824.60
2018-09-10T09:41:12.822Z,99820.59
2018-09-10T09:43:48.616Z,99823.31
2018-09-10T09:46:21.007Z,99825.52
2018-09-10T09:48:51.532Z,99828.19
2018-09-10T09:51:22.024Z,99826.06
2018-09-10T09:53:52.659Z,99823.25
2018-09-10T09:56:23.147Z,99829.66
2018-09-10T09:58:53.644Z,99826.10
2018-09-10T10:01:29.457Z,99825.46
2018-09-10T10:04:03.847Z,99823.44
2018-09-10T10:06:34.768Z,99818.20
2018-09-10T10:09:08.392Z,99818.75
2018-09-10T10:11:39.717Z,99830.88
2018-09-10T10:14:11.266Z,99811.19
2018-09-10T10:16:42.111Z,99808.66
2018-09-10T10:19:12.773Z,99818.16
2018-09-10T10:21:43.523Z,99809.46
2018-09-10T10:24:14.296Z,99813.76
2018-09-10T10:26:44.836Z,99800.71
2018-09-10T10:29:15.048Z,99804.66
2018-09-10T10:31:45.942Z,99802.72
2018-09-10T10:34:16.324Z,99796.19
2018-09-10T10:36:46.536Z,99797.60
2018-09-10T10:39:16.796Z,99788.62
2018-09-10T10:41:47.438Z,99789.63
2018-09-10T10:44:17.927Z,99789.19
2018-09-10T10:46:48.497Z,99783.95
2018-09-10T10:49:19.063Z,99785.95
2018-09-10T10:51:49.841Z,99787.19
2018-09-10T10:54:20.326Z,99783.83
2018-09-10T10:56:50.877Z,99781.16
2018-09-10T10:59:21.428Z,99769.31
2018-09-10T11:01:51.930Z,99765.64
2018-09-10T11:04:22.409Z,99769.55
2018-09-10T11:06:52.796Z,99759.19
2018-09-10T11:09:23.280Z,99755.38
2018-09-10T11:11:53.962Z,99752.50
2018-09-10T11:14:24.164Z,99759.38
2018-09-10T11:16:54.917Z,99763.20
2018-09-10T11:19:25.648Z,99760.66
2018-09-10T11:21:56.137Z,99762.04
2018-09-10T11:24:26.696Z,99759.63
2018-09-10T11:26:57.266Z,99749.63
2018-09-10T11:29:27.779Z,99744.10
2018-09-10T11:31:58.881Z,99740.98
2018-09-10T11:34:29.389Z,99744.25
2018-09-10T11:36:59.596Z,99742.66
2018-09-10T11:39:29.780Z,99746.22
2018-09-10T11:42:00.336Z,99747.31
2018-09-10T11:44:30.572Z,99750.00
2018-09-10T11:47:01.126Z,99740.88
2018-09-10T11:49:31.765Z,99747.38
2018-09-10T11:52:02.291Z,99742.98
2018-09-10T11:54:32.855Z,99742.89
2018-09-10T11:57:03.959Z,99735.47
2018-09-10T11:59:34.535Z,99736.67
2018-09-10T12:02:08.557Z,99726.23
2018-09-10T12:04:39.157Z,99717.07
2018-09-10T12:07:09.785Z,99714.85
2018-09-10T12:09:40.032Z,99707.86
2018-09-10T12:12:10.480Z,99713.17
2018-09-10T12:14:41.985Z,99713.32
2018-09-10T12:17:12.462Z,99708.34
2018-09-10T12:19:43.024Z,99715.62
2018-09-10T12:22:13.469Z,99716.12
2018-09-10T12:24:43.981Z,99702.33
2018-09-10T12:27:14.734Z,99707.02
2018-09-10T12:29:46.029Z,99701.20
2018-09-10T12:32:16.642Z,99705.16
2018-09-10T12:34:47.394Z,99703.24
2018-09-10T12:37:17.604Z,99700.33
2018-09-10T12:39:48.209Z,99701.52
2018-09-10T12:42:18.932Z,99702.67
2018-09-10T12:44:49.475Z,99702.56
2018-09-10T12:47:19.710Z,99706.17
2018-09-10T12:49:49.921Z,99697.05
2018-09-10T12:52:20.137Z,99706.51
2018-09-10T12:54:50.695Z,99705.40
2018-09-10T12:57:21.400Z,99704.84
2018-09-10T12:59:52.096Z,99687.05
2018-09-10T13:02:22.434Z,99708.28
2018-09-10T13:04:52.660Z,99704.66
2018-09-10T13:07:23.389Z,99705.77
2018-09-10T13:09:53.871Z,99701.85
2018-09-10T13:12:24.463Z,99693.59
2018-09-10T13:14:54.824Z,99678.98
2018-09-10T13:17:26.211Z,99687.42
2018-09-10T13:19:56.933Z,99686.64
2018-09-10T13:22:27.475Z,99691.14
2018-09-10T13:24:58.149Z,99682.17
2018-09-10T13:27:28.827Z,99689.23
2018-09-10T13:30:00.659Z,99675.16
2018-09-10T13:32:31.143Z,99673.98
2018-09-10T13:35:01.978Z,99673.84
2018-09-10T13:37:32.313Z,99678.60
2018-09-10T13:40:02.856Z,99675.17
2018-09-10T13:42:33.396Z,99673.63
2018-09-10T13:45:03.963Z,99668.91
2018-09-10T13:47:35.139Z,99662.59
2018-09-10T13:50:06.039Z,99663.89
2018-09-10T13:52:36.942Z,99661.33
2018-09-10T13:55:07.342Z,99658.47
2018-09-10T13:57:37.656Z,99668.87
2018-09-10T14:00:08.208Z,99668.63
2018-09-10T14:02:38.416Z,99675.23
2018-09-10T14:05:10.178Z,99673.71
2018-09-10T14:07:40.674Z,99671.39
2018-09-10T14:10:11.164Z,99670.32
2018-09-10T14:12:41.872Z,99664.14
2018-09-10T14:15:12.426Z,99669.82
2018-09-10T14:17:43.789Z,99661.34
2018-09-10T14:20:14.280Z,99668.47
2018-09-10T14:22:45.083Z,99664.16
2018-09-10T14:25:15.589Z,99665.49
2018-09-10T14:27:46.317Z,99665.35
2018-09-10T14:30:17.308Z,99660.61
2018-09-10T14:32:47.957Z,99659.61
2018-09-10T14:35:18.664Z,99653.16
2018-09-10T14:37:49.329Z,99652.17
2018-09-10T14:40:19.832Z,99649.73
2018-09-10T14:42:50.338Z,99644.26
2018-09-10T14:45:21.364Z,99642.91
2018-09-10T14:47:51.740Z,99649.66
2018-09-10T14:50:22.536Z,99656.08
2018-09-10T14:52:53.211Z,99652.91
2018-09-10T14:55:23.848Z,99650.56
2018-09-10T14:57:54.329Z,99650.86
2018-09-10T15:00:25.496Z,99643.71
2018-09-10T15:02:57.001Z,99656.38
2018-09-10T15:05:27.664Z,99645.03
2018-09-10T15:08:00.452Z,99640.85
2018-09-10T15:10:30.691Z,99644.28
2018-09-10T15:13:01.263Z,99645.63
2018-09-10T15:15:32.367Z,99652.84
2018-09-10T15:18:02.692Z,99645.61
2018-09-10T15:20:33.241Z,99646.92
2018-09-10T15:23:03.570Z,99648.57
2018-09-10T15:25:34.299Z,99643.36
2018-09-10T15:28:04.824Z,99650.47
2018-09-10T15:30:35.399Z,99648.63
2018-09-10T15:33:06.092Z,99644.58
2018-09-10T15:35:37.072Z,99641.86
2018-09-10T15:38:07.593Z,99645.22
2018-09-10T15:40:38.195Z,99639.29
2018-09-10T15:43:10.060Z,99639.93
2018-09-10T15:45:40.368Z,99639.38
2018-09-10T15:48:10.579Z,99640.93
2018-09-10T15:50:41.085Z,99624.12
2018-09-10T15:53:11.415Z,99650.50
2018-09-10T15:55:42.478Z,99653.92
2018-09-10T15:58:13.315Z,99648.67
2018-09-10T16:00:43.883Z,99648.22
2018-09-10T16:03:14.261Z,99647.17
2018-09-10T16:05:45.272Z,99634.22
2018-09-10T16:08:16.713Z,99645.42
2018-09-10T16:10:47.682Z,99646.47
2018-09-10T16:13:18.277Z,99644.67
2018-09-10T16:15:49.092Z,99651.75
2018-09-10T16:18:19.948Z,99652.88
2018-09-10T16:20:50.215Z,99654.81
2018-09-10T16:23:20.515Z,99643.99
2018-09-10T16:25:51.224Z,99650.67
2018-09-10T16:28:21.748Z,99643.13
2018-09-10T16:30:52.691Z,99642.63
2018-09-10T16:33:23.273Z,99640.27
2018-09-10T16:35:53.793Z,99643.71
2018-09-10T16:38:24.514Z,99644.64
2018-09-10T16:40:55.298Z,99643.53
2018-09-10T16:43:26.417Z,99648.73
2018-09-10T16:45:57.004Z,99645.69
2018-09-10T16:48:28.264Z,99643.72
2018-09-10T16:51:02.976Z,99644.33
2018-09-10T16:53:34.454Z,99644.83
2018-09-10T16:56:05.396Z,99640.83
2018-09-10T16:58:36.109Z,99641.31
2018-09-10T17:01:07.180Z,99638.80
2018-09-10T17:03:37.515Z,99644.20
2018-09-10T17:06:08.200Z,99632.30
2018-09-10T17:08:39.003Z,99639.28
2018-09-10T17:11:09.952Z,99637.97
2018-09-10T17:13:40.499Z,99641.01
2018-09-10T17:16:11.043Z,99640.16
2018-09-10T17:18:42.827Z,99640.33
2018-09-10T17:21:13.354Z,99645.09
2018-09-10T17:23:43.907Z,99650.77
2018-09-10T17:26:14.527Z,99652.25
2018-09-10T17:28:46.384Z,99659.45
2018-09-10T17:31:17.306Z,99656.59
2018-09-10T17:33:47.910Z,99582.27
2018-09-10T17:36:18.664Z,99653.31
2018-09-10T17:38:49.205Z,99644.59
2018-09-10T17:41:19.571Z,99654.69
2018-09-10T17:43:50.172Z,99658.74
2018-09-10T17:46:21.245Z,99662.17
2018-09-10T17:48:51.733Z,99672.55
2018-09-10T17:51:21.966Z,99671.16
2018-09-10T17:53:52.631Z,99673.98
2018-09-10T17:56:23.250Z,99672.37
2018-09-10T17:58:53.709Z,99682.05
2018-09-10T18:01:24.595Z,99684.18
2018-09-10T18:03:54.879Z,99675.04
2018-09-10T18:06:25.340Z,99677.94
2018-09-10T18:08:56.137Z,99679.69
2018-09-10T18:11:28.522Z,99681.46
2018-09-10T18:13:59.235Z,99682.00
2018-09-10T18:16:29.917Z,99688.41
2018-09-10T18:19:00.710Z,99695.33
2018-09-10T18:21:31.708Z,99690.02
2018-09-10T18:24:02.922Z,99685.64
2018-09-10T18:26:33.460Z,99684.04
2018-09-10T18:29:04.035Z,99685.29
2018-09-10T18:31:34.535Z,99686.66
2018-09-10T18:34:05.167Z,99685.20
2018-09-10T18:36:35.813Z,99694.08
2018-09-10T18:39:09.576Z,99693.63
2018-09-10T18:41:40.491Z,99702.33
2018-09-10T18:44:10.952Z,99706.35
2018-09-10T18:46:41.457Z,99701.45
2018-09-10T18:49:12.046Z,99700.37
2018-09-10T18:51:42.601Z,99702.34
2018-09-10T18:54:13.344Z,99701.00
2018-09-10T18:56:43.868Z,99702.02
2018-09-10T18:59:14.296Z,99704.30
2018-09-10T19:01:44.787Z,99704.91
2018-09-10T19:04:15.323Z,99706.30
2018-09-10T19:06:46.049Z,99703.53
2018-09-10T19:09:16.753Z,99707.73
2018-09-10T19:11:47.086Z,99707.62
2018-09-10T19:14:18.076Z,99709.25
2018-09-10T19:16:48.756Z,99703.52
2018-09-10T19:19:19.536Z,99711.56
2018-09-10T19:21:50.280Z,99702.67
2018-09-10T19:24:21.383Z,99712.06
2018-09-10T19:26:51.768Z,99714.03
2018-09-10T19:29:22.616Z,99716.59
2018-09-10T19:31:56.225Z,99716.95
2018-09-10T19:34:27.008Z,99721.00
2018-09-10T19:36:57.636Z,99727.58
2018-09-10T19:39:28.241Z,99721.00
2018-09-10T19:41:58.723Z,99726.28
2018-09-10T19:44:29.512Z,99729.55
2018-09-10T19:47:00.030Z,99733.22
2018-09-10T19:49:30.981Z,99740.79
2018-09-10T19:52:01.711Z,99739.45
2018-09-10T19:54:32.622Z,99749.43
2018-09-10T19:57:03.228Z,99746.91
2018-09-10T19:59:34.572Z,99748.72
2018-09-10T20:02:05.405Z,99745.41
2018-09-10T20:04:35.920Z,99748.83
2018-09-10T20:07:06.464Z,99740.04
2018-09-10T20:09:37.138Z,99741.27
2018-09-10T20:12:07.852Z,99740.05
2018-09-10T20:14:41.401Z,99743.83
2018-09-10T20:17:12.077Z,99744.81
2018-09-10T20:19:42.280Z,99738.47
2018-09-10T20:22:16.985Z,99741.15
2018-09-10T20:24:47.493Z,99741.89
2018-09-10T20:27:18.019Z,99740.20
2018-09-10T20:29:48.239Z,99741.90
2018-09-10T20:32:18.507Z,99735.11
2018-09-10T20:34:49.288Z,99742.52
2018-09-10T20:37:20.653Z,99739.61
2018-09-10T20:39:50.820Z,99745.09
2018-09-10T20:42:21.505Z,99738.27
2018-09-10T20:44:52.157Z,99740.71
2018-09-10T20:47:22.858Z,99738.98
2018-09-10T20:49:53.704Z,99733.27
2018-09-10T20:52:23.925Z,99729.13
2018-09-10T20:54:54.168Z,99731.29
2018-09-10T20:57:24.688Z,99733.50
2018-09-10T20:59:54.916Z,99734.33
2018-09-10T21:02:25.642Z,99729.24
2018-09-10T21:04:57.885Z,99740.95
2018-09-10T21:07:28.653Z,99739.69
2018-09-10T21:09:59.370Z,99738.86
2018-09-10T21:12:30.001Z,99732.91
2018-09-10T21:15:00.573Z,99733.73
2018-09-10T21:17:31.059Z,99728.77
2018-09-10T21:20:01.637Z,99726.80
2018-09-10T21:22:35.290Z,99731.30
2018-09-10T21:25:06.810Z,99728.73
2018-09-10T21:27:37.902Z,99732.16
2018-09-10T21:30:08.521Z,99733.14
2018-09-10T21:32:38.996Z,99739.25
2018-09-10T21:35:42.076Z,99733.77
2018-09-10T21:38:12.483Z,99739.73
2018-09-10T21:40:43.367Z,99730.82
2018-09-10T21:43:13.552Z,99733.14
2018-09-10T21:45:44.045Z,99732.40
2018-09-10T21:48:14.536Z,99731.09
2018-09-10T21:50:45.253Z,99723.76
2018-09-10T21:53:16.257Z,99734.13
2018-09-10T21:55:47.062Z,99736.69
2018-09-10T21:58:18.405Z,99732.55
2018-09-10T22:00:53.960Z,99736.81
2018-09-10T22:03:25.085Z,99729.78
2018-09-10T22:05:55.953Z,99729.88
2018-09-10T22:08:26.239Z,99731.48
2018-09-10T22:10:56.471Z,99739.64
2018-09-10T22:13:26.952Z,99746.73
2018-09-10T22:15:57.463Z,99736.95
2018-09-10T22:18:27.989Z,99748.90
2018-09-10T22:20:58.544Z,99744.13
2018-09-10T22:23:28.825Z,99750.59
2018-09-10T22:25:59.636Z,99740.73
2018-09-10T22:28:30.195Z,99739.76
2018-09-10T22:31:00.675Z,99735.50
2018-09-10T22:33:31.209Z,99739.25
2018-09-10T22:36:02.026Z,99736.45
2018-09-10T22:38:32.268Z,99737.55
2018-09-10T22:41:02.808Z,99738.03
2018-09-10T22:43:35.152Z,99741.90
2018-09-10T22:46:06.335Z,99744.34
2018-09-10T22:48:36.931Z,99742.37
2018-09-10T22:51:07.423Z,99742.25
2018-09-10T22:53:38.814Z,99739.37
2018-09-10T22:56:09.380Z,99746.45
2018-09-10T22:58:39.931Z,99752.80
2018-09-10T23:01:13.035Z,99745.74
2018-09-10T23:03:43.688Z,99747.32
2018-09-10T23:06:14.199Z,99739.02
2018-09-10T23:08:44.816Z,99742.29
2018-09-10T23:11:16.249Z,99745.23
2018-09-10T23:13:47.082Z,99741.06
2018-09-10T23:16:17.591Z,99741.73
2018-09-10T23:18:48.228Z,99738.94
2018-09-10T23:21:18.979Z,99735.59
2018-09-10T23:23:49.476Z,99744.73
2018-09-10T23:26:20.210Z,99742.84
2018-09-10T23:28:50.703Z,99740.67
2018-09-10T23:31:21.206Z,99740.40
2018-09-10T23:33:51.427Z,99738.11
2018-09-10T23:36:22.121Z,99733.46
2018-09-10T23:38:52.668Z,99733.50
2018-09-10T23:41:23.515Z,99732.00
2018-09-10T23:43:54.125Z,99729.91
2018-09-10T23:46:24.876Z,99724.54
2018-09-10T23:48:55.381Z,99726.83
2018-09-10T23:51:25.961Z,99730.94
2018-09-10T23:53:57.064Z,99722.81
2018-09-10T23:56:27.627Z,99728.92
2018-09-10T23:58:58.116Z,99739.52
